Time;durP1;ratioP1;P1;durP2;ratioP2;P2;SDS_P1;SDS_P2;PMS_P1;PMS_P2;Temp;Humidity;BMP_temperature;BMP_pressure;BME280_temperature;BME280_humidity;BME280_pressure;Samples;Min_cycle;Max_cycle;Signal;HPM_P1;HPM_P2
2022/08/23 00:01:43;;;;;;;14.55;5.97;;;18.10;99.90;;;;;;4954928;29;20039;-59
2022/08/23 00:04:13;;;;;;;15.10;6.05;;;17.80;99.90;;;;;;4953607;29;20062;-59
2022/08/23 00:06:40;;;;;;;13.75;6.28;;;17.90;99.90;;;;;;4938017;29;20039;-59
2022/08/23 00:09:07;;;;;;;12.20;6.28;;;17.90;99.90;;;;;;4937602;29;20102;-59
2022/08/23 00:11:44;;;;;;;14.68;6.32;;;17.90;99.90;;;;;;4954901;29;20559;-59
2022/08/23 00:14:26;;;;;;;13.38;6.05;;;17.90;99.90;;;;;;4954774;29;20499;-59
2022/08/23 00:16:52;;;;;;;14.50;6.63;;;17.70;99.90;;;;;;4954908;29;20035;-59
2022/08/23 00:19:20;;;;;;;12.68;5.70;;;17.90;99.90;;;;;;4954775;29;20047;-57
2022/08/23 00:21:46;;;;;;;14.50;5.78;;;17.80;99.90;;;;;;4954698;29;20039;-59
2022/08/23 00:24:15;;;;;;;9.55;5.78;;;17.80;99.90;;;;;;4954341;29;20123;-59
2022/08/23 00:27:07;;;;;;;14.05;5.85;;;18.20;99.90;;;;;;4937306;29;20055;-59
2022/08/23 00:29:39;;;;;;;14.98;5.75;;;17.80;99.90;;;;;;4951732;29;20047;-59
2022/08/23 00:32:08;;;;;;;14.20;5.40;;;18.10;99.90;;;;;;4954690;29;20563;-59
2022/08/23 00:34:35;;;;;;;11.40;5.43;;;17.70;99.90;;;;;;4954416;29;20035;-59
2022/08/23 00:37:02;;;;;;;17.02;5.65;;;17.70;99.90;;;;;;4954778;29;20396;-59
2022/08/23 00:39:28;;;;;;;10.95;5.15;;;17.80;99.90;;;;;;4954958;28;20044;-58
2022/08/23 00:47:38;;;;;;;12.45;5.50;;;17.60;99.90;;;;;;4958060;29;20121;-58
2022/08/23 00:47:41;;;;;;;11.35;5.43;;;17.40;99.90;;;;;;4957932;29;20055;-58
2022/08/23 00:50:29;;;;;;;13.38;6.20;;;17.50;99.90;;;;;;4958180;29;20047;-59
2022/08/23 00:53:19;;;;;;;15.93;7.53;;;17.50;99.90;;;;;;4956662;29;20046;-58
2022/08/23 00:55:47;;;;;;;18.73;7.88;;;17.20;99.90;;;;;;4958115;29;20439;-59
2022/08/23 00:58:17;;;;;;;15.20;7.70;;;17.40;99.90;;;;;;4957870;29;20043;-58
2022/08/23 01:00:43;;;;;;;17.27;8.30;;;17.30;99.90;;;;;;4957222;29;20121;-58
2022/08/23 01:03:11;;;;;;;17.70;8.88;;;17.40;99.90;;;;;;4957877;29;20047;-59
2022/08/23 01:06:00;;;;;;;20.10;10.00;;;17.40;99.90;;;;;;4941010;29;20458;-58
2022/08/23 01:08:28;;;;;;;21.02;9.93;;;18.00;99.90;;;;;;4957629;29;20032;-59
2022/08/23 01:11:02;;;;;;;22.95;10.45;;;17.50;99.90;;;;;;4957736;29;20047;-58
2022/08/23 01:13:55;;;;;;;17.13;9.35;;;17.40;99.90;;;;;;4940658;29;20534;-58
2022/08/23 01:16:25;;;;;;;20.38;9.52;;;17.50;99.90;;;;;;4957543;29;20403;-58
2022/08/23 01:18:54;;;;;;;20.60;9.73;;;17.50;99.90;;;;;;4957161;29;20075;-58
2022/08/23 01:21:30;;;;;;;19.95;9.15;;;17.50;99.90;;;;;;4957605;29;20043;-58
2022/08/23 01:24:02;;;;;;;20.98;9.65;;;17.40;99.90;;;;;;4957171;29;20066;-59
2022/08/23 01:26:33;;;;;;;18.27;9.05;;;17.50;99.90;;;;;;4957276;29;20047;-59
2022/08/23 01:29:02;;;;;;;19.35;9.38;;;17.50;99.90;;;;;;4957329;29;20043;-59
2022/08/23 01:31:30;;;;;;;18.92;9.50;;;17.50;99.90;;;;;;4957510;29;20106;-58
2022/08/23 01:34:02;;;;;;;22.33;9.18;;;17.80;99.90;;;;;;4957111;29;20058;-58
2022/08/23 01:36:29;;;;;;;16.25;9.10;;;18.30;99.90;;;;;;4957281;29;20053;-58
2022/08/23 01:38:56;;;;;;;15.48;8.68;;;17.30;99.90;;;;;;4956793;29;20047;-58
2022/08/23 01:41:23;;;;;;;14.77;8.40;;;17.50;99.90;;;;;;4957081;29;20483;-59
2022/08/23 01:43:49;;;;;;;16.02;8.60;;;17.30;99.90;;;;;;4956653;29;20396;-58
2022/08/23 01:46:18;;;;;;;15.60;8.20;;;18.80;99.90;;;;;;4957202;29;20054;-58
2022/08/23 01:48:46;;;;;;;14.65;8.30;;;17.50;99.90;;;;;;4956866;29;20551;-58
2022/08/23 01:51:17;;;;;;;14.32;7.65;;;17.80;99.90;;;;;;4956770;28;20131;-59
2022/08/23 01:53:46;;;;;;;14.30;7.57;;;17.40;99.90;;;;;;4956683;29;20078;-59
2022/08/23 01:56:19;;;;;;;18.90;7.18;;;17.70;99.90;;;;;;4956800;29;20035;-59
2022/08/23 01:58:45;;;;;;;12.25;6.95;;;17.40;99.90;;;;;;4956916;29;20043;-59
2022/08/23 02:01:12;;;;;;;12.77;7.47;;;16.90;99.90;;;;;;4956849;29;20122;-59
2022/08/23 02:03:38;;;;;;;11.02;7.00;;;17.10;99.90;;;;;;4956766;29;20043;-59
2022/08/23 02:06:05;;;;;;;16.02;7.50;;;17.20;99.90;;;;;;4956556;29;20043;-58
2022/08/23 02:11:21;;;;;;;13.32;7.25;;;17.00;99.90;;;;;;4942235;29;20054;-58
2022/08/23 02:13:48;;;;;;;14.13;7.53;;;16.90;99.90;;;;;;4956486;29;20046;-59
2022/08/23 02:16:22;;;;;;;13.50;7.40;;;16.70;99.90;;;;;;4956579;29;20039;-58
2022/08/23 02:18:49;;;;;;;13.18;7.10;;;17.00;99.90;;;;;;4956199;29;20070;-58
2022/08/23 02:21:16;;;;;;;13.07;7.82;;;17.00;99.90;;;;;;4956553;29;20043;-58
2022/08/23 02:23:44;;;;;;;18.85;8.50;;;17.00;99.90;;;;;;4954079;29;20047;-58
2022/08/23 02:26:12;;;;;;;13.50;8.27;;;16.90;99.90;;;;;;4956382;29;20051;-59
2022/08/23 02:28:37;;;;;;;11.93;8.38;;;16.90;99.90;;;;;;4956187;29;20035;-58
2022/08/23 02:31:03;;;;;;;17.10;8.60;;;16.90;99.90;;;;;;4956025;29;20058;-58
2022/08/23 02:33:29;;;;;;;13.18;8.32;;;16.70;99.90;;;;;;4956309;29;20097;-59
2022/08/23 02:35:55;;;;;;;16.27;8.35;;;16.70;99.90;;;;;;4954763;29;20043;-65
2022/08/23 02:38:21;;;;;;;13.60;9.02;;;16.60;99.90;;;;;;4956113;29;20039;-62
2022/08/23 02:40:52;;;;;;;18.90;9.52;;;16.80;99.90;;;;;;4955968;29;20575;-59
2022/08/23 02:43:17;;;;;;;19.27;8.43;;;16.70;99.90;;;;;;4956036;29;20408;-59
2022/08/23 02:45:44;;;;;;;12.27;8.30;;;16.60;99.90;;;;;;4955813;29;20043;-59
2022/08/23 02:48:09;;;;;;;16.15;9.15;;;16.70;99.90;;;;;;4955711;29;20039;-58
2022/08/23 02:50:37;;;;;;;13.98;8.98;;;16.60;99.90;;;;;;4955963;29;20047;-58
2022/08/23 02:53:03;;;;;;;18.75;8.82;;;16.60;99.90;;;;;;4955660;29;20045;-59
2022/08/23 02:55:34;;;;;;;13.43;8.40;;;16.60;99.90;;;;;;4955769;29;20138;-58
2022/08/23 02:58:01;;;;;;;16.52;8.60;;;16.50;99.90;;;;;;4955939;29;20050;-58
2022/08/23 03:00:30;;;;;;;14.88;8.43;;;16.70;99.90;;;;;;4938330;29;20419;-58
2022/08/23 03:02:56;;;;;;;13.20;8.35;;;16.60;99.90;;;;;;4955005;28;20047;-59
2022/08/23 03:05:26;;;;;;;13.63;8.32;;;16.60;99.90;;;;;;4955767;29;20085;-58
2022/08/23 03:08:01;;;;;;;;;;;16.50;99.90;;;;;;4955964;29;20043;-58
2022/08/23 03:10:27;;;;;;;;;;;16.40;99.90;;;;;;4954755;29;19929;-58
2022/08/23 03:12:53;;;;;;;17.48;9.65;;;16.40;99.90;;;;;;4955365;29;19919;-58
2022/08/23 03:15:19;;;;;;;18.63;10.60;;;16.50;99.90;;;;;;4955455;29;20043;-58
2022/08/23 03:17:45;;;;;;;19.40;11.13;;;16.40;99.90;;;;;;4955383;29;20131;-58
2022/08/23 03:20:10;;;;;;;15.38;9.75;;;16.50;99.90;;;;;;4955471;29;20035;-59
2022/08/23 03:22:36;;;;;;;16.73;10.73;;;16.50;99.90;;;;;;4955294;29;20047;-58
2022/08/23 03:25:05;;;;;;;21.40;11.45;;;16.30;99.90;;;;;;4955249;29;20051;-59
2022/08/23 03:27:31;;;;;;;16.42;10.65;;;16.50;99.90;;;;;;4955145;29;20046;-58
2022/08/23 03:29:59;;;;;;;16.20;10.52;;;16.10;99.90;;;;;;4955074;29;20118;-58
2022/08/23 03:32:26;;;;;;;15.48;11.02;;;16.30;99.90;;;;;;4938381;29;20066;-58
2022/08/23 03:34:52;;;;;;;17.67;11.25;;;16.40;99.90;;;;;;4955148;29;20031;-58
2022/08/23 03:37:20;;;;;;;19.48;12.25;;;16.30;99.90;;;;;;4955111;29;20506;-58
2022/08/23 03:39:51;;;;;;;18.70;11.65;;;16.40;99.90;;;;;;4955092;29;20399;-58
2022/08/23 03:42:17;;;;;;;18.00;11.40;;;;;;;;;;4937903;29;20106;-58
2022/08/23 03:44:44;;;;;;;16.98;11.30;;;16.40;99.90;;;;;;4954275;29;20130;-59
2022/08/23 03:47:12;;;;;;;19.85;11.65;;;16.10;99.90;;;;;;4955020;29;20050;-58
2022/08/23 03:49:37;;;;;;;14.80;10.90;;;16.30;99.90;;;;;;4954844;29;20527;-58
2022/08/23 03:52:05;;;;;;;14.23;10.43;;;16.20;99.90;;;;;;4954990;29;20051;-58
2022/08/23 03:54:32;;;;;;;23.90;11.73;;;16.20;99.90;;;;;;4954134;29;20047;-58
2022/08/23 03:57:01;;;;;;;13.73;11.23;;;15.90;99.90;;;;;;4955121;29;20455;-58
2022/08/23 03:59:31;;;;;;;15.30;11.15;;;16.30;99.90;;;;;;4954902;29;20118;-58
2022/08/23 04:01:58;;;;;;;17.70;11.30;;;16.20;99.90;;;;;;4954895;29;20058;-58
2022/08/23 04:04:24;;;;;;;15.27;10.52;;;15.90;99.90;;;;;;4954833;29;20126;-58
2022/08/23 04:06:50;;;;;;;16.20;12.23;;;16.40;99.90;;;;;;4953796;29;20135;-58
2022/08/23 04:09:19;;;;;;;20.00;12.18;;;16.00;99.90;;;;;;4953131;29;20087;-59
2022/08/23 04:11:45;;;;;;;18.00;11.65;;;;;;;;;;4937761;29;20051;-59
2022/08/23 04:14:14;;;;;;;15.85;11.27;;;16.10;99.90;;;;;;4954765;28;20072;-59
2022/08/23 04:16:40;;;;;;;18.15;11.68;;;15.80;99.90;;;;;;4958607;29;20098;-59
2022/08/23 04:19:08;;;;;;;17.50;11.57;;;16.80;99.90;;;;;;4958552;29;20403;-59
2022/08/23 04:21:36;;;;;;;16.35;11.70;;;16.00;99.90;;;;;;4958410;29;20047;-59
2022/08/23 04:24:02;;;;;;;19.98;12.98;;;17.10;99.90;;;;;;4958587;29;20077;-58
2022/08/23 04:26:27;;;;;;;15.98;11.63;;;16.20;99.90;;;;;;4958400;29;20484;-58
2022/08/23 04:29:03;;;;;;;16.17;11.63;;;16.00;99.90;;;;;;4958525;29;20043;-58
2022/08/23 04:31:29;;;;;;;17.85;11.30;;;15.50;99.90;;;;;;4958320;29;20556;-59
2022/08/23 04:33:58;;;;;;;13.93;10.77;;;17.00;99.90;;;;;;4958224;29;20050;-59
2022/08/23 04:36:25;;;;;;;20.15;11.38;;;16.10;99.90;;;;;;4958099;29;20102;-59
2022/08/23 04:38:54;;;;;;;19.88;11.52;;;16.20;99.90;;;;;;4958129;29;20039;-59
2022/08/23 04:44:07;;;;;;;15.38;11.07;;;15.40;99.90;;;;;;4958168;29;20495;-59
2022/08/23 04:46:34;;;;;;;20.88;11.20;;;16.00;99.90;;;;;;4957928;29;20122;-58
2022/08/23 04:49:00;;;;;;;19.35;11.60;;;15.80;99.90;;;;;;4940739;29;20042;-59
2022/08/23 04:51:26;;;;;;;16.90;10.85;;;16.10;99.90;;;;;;4958144;29;20050;-59
2022/08/23 04:53:52;;;;;;;17.05;10.05;;;16.30;99.90;;;;;;4958063;29;20047;-59
2022/08/23 04:56:18;;;;;;;16.85;10.13;;;16.50;99.90;;;;;;4957927;29;20412;-59
2022/08/23 04:58:44;;;;;;;16.50;11.02;;;16.20;99.90;;;;;;4957905;29;20141;-59
2022/08/23 05:01:10;;;;;;;16.00;10.63;;;16.50;99.90;;;;;;4957708;29;20047;-59
2022/08/23 05:03:36;;;;;;;13.73;10.50;;;16.40;99.90;;;;;;4957915;29;20043;-59
2022/08/23 05:06:06;;;;;;;15.27;10.70;;;16.40;99.90;;;;;;4957699;29;20047;-58
2022/08/23 05:08:35;;;;;;;13.57;10.43;;;16.20;99.90;;;;;;4957639;29;20098;-59
2022/08/23 05:11:05;;;;;;;14.82;9.68;;;16.60;99.90;;;;;;4957680;29;20043;-59
2022/08/23 05:13:33;;;;;;;15.65;9.68;;;17.00;99.90;;;;;;4957505;29;20058;-59
2022/08/23 05:16:01;;;;;;;18.20;9.95;;;16.50;99.90;;;;;;4957373;29;20039;-59
2022/08/23 05:18:26;;;;;;;17.30;9.95;;;16.50;99.90;;;;;;4957668;29;20044;-59
2022/08/23 05:20:52;;;;;;;17.38;9.48;;;17.50;99.90;;;;;;4957470;29;20524;-59
2022/08/23 05:23:18;;;;;;;16.25;9.60;;;17.60;99.90;;;;;;4957195;29;20051;-58
2022/08/23 05:25:51;;;;;;;13.02;9.18;;;17.70;99.90;;;;;;4939300;29;20531;-59
2022/08/23 05:28:50;;;;;;;15.43;8.95;;;18.10;99.90;;;;;;4957079;29;20102;-59
2022/08/23 05:31:20;;;;;;;13.00;9.20;;;18.30;99.90;;;;;;4946167;29;20051;-59
2022/08/23 05:33:47;;;;;;;16.88;8.70;;;18.50;99.90;;;;;;4940125;29;20110;-59
2022/08/23 05:36:15;;;;;;;13.20;9.02;;;18.30;99.90;;;;;;4957244;29;20483;-59
2022/08/23 05:38:52;;;;;;;12.55;7.93;;;19.20;99.90;;;;;;4956996;29;20133;-59
2022/08/23 05:41:18;;;;;;;15.00;7.97;;;19.30;99.90;;;;;;4957247;29;20047;-59
2022/08/23 05:43:46;;;;;;;14.85;8.25;;;20.20;99.90;;;;;;4940135;29;20051;-58
2022/08/23 05:46:15;;;;;;;13.98;7.80;;;22.00;99.90;;;;;;4956934;29;20515;-56
2022/08/23 05:48:45;;;;;;;13.38;7.45;;;21.90;99.90;;;;;;4956882;29;20039;-56
2022/08/23 05:51:14;;;;;;;14.68;7.10;;;22.60;99.90;;;;;;4956426;28;20055;-57
2022/08/23 05:53:41;;;;;;;12.98;7.10;;;23.30;99.90;;;;;;4975683;28;20039;-56
2022/08/23 05:56:21;;;;;;;12.75;6.95;;;24.00;99.90;;;;;;4976010;28;20046;-56
2022/08/23 05:58:50;;;;;;;13.95;7.03;;;24.70;99.90;;;;;;4975827;28;20522;-57
2022/08/23 06:01:18;;;;;;;12.45;6.72;;;25.70;99.90;;;;;;4975953;28;20410;-57
2022/08/23 06:03:44;;;;;;;12.25;6.40;;;25.90;99.90;;;;;;4975690;28;20054;-57
2022/08/23 06:06:14;;;;;;;11.98;6.28;;;26.50;99.90;;;;;;4976703;28;20125;-57
2022/08/23 06:08:41;;;;;;;12.40;7.20;;;27.10;97.80;;;;;;4966415;28;20046;-57
2022/08/23 06:11:14;;;;;;;13.25;6.38;;;27.60;95.10;;;;;;4959402;28;20380;-58
2022/08/23 06:13:46;;;;;;;10.85;6.72;;;28.00;92.10;;;;;;4964653;28;20043;-58
2022/08/23 06:16:14;;;;;;;10.88;5.90;;;28.50;90.10;;;;;;4962497;28;20496;-58
2022/08/23 06:18:40;;;;;;;10.55;6.15;;;29.40;90.50;;;;;;4960852;28;20051;-58
2022/08/23 06:21:12;;;;;;;10.10;5.82;;;29.50;83.30;;;;;;4958830;28;20038;-58
2022/08/23 06:23:40;;;;;;;9.30;5.50;;;30.20;78.70;;;;;;4964518;28;20058;-58
2022/08/23 06:26:30;;;;;;;13.85;5.75;;;30.70;75.00;;;;;;4963951;28;20046;-58
2022/08/23 06:28:58;;;;;;;7.25;5.50;;;30.90;67.00;;;;;;4961925;28;20057;-58
2022/08/23 06:31:44;;;;;;;9.40;5.82;;;30.40;70.90;;;;;;4967585;28;20114;-58
2022/08/23 06:34:19;;;;;;;10.13;5.18;;;30.00;71.10;;;;;;4957068;28;20186;-59
2022/08/23 06:36:47;;;;;;;13.98;5.53;;;29.20;75.80;;;;;;4955041;28;20046;-59
2022/08/23 06:39:14;;;;;;;12.23;5.75;;;30.20;69.70;;;;;;4973077;28;20089;-59
2022/08/23 06:41:40;;;;;;;8.55;5.85;;;30.70;67.90;;;;;;4942352;28;20057;-58
2022/08/23 06:44:07;;;;;;;9.30;5.22;;;31.10;69.90;;;;;;4975298;28;20050;-58
2022/08/23 06:46:33;;;;;;;11.00;5.32;;;31.70;64.10;;;;;;4957745;28;20053;-58
2022/08/23 06:49:05;;;;;;;9.25;5.22;;;32.20;62.10;;;;;;4974893;28;20045;-58
2022/08/23 06:51:33;;;;;;;8.25;5.10;;;32.60;60.50;;;;;;4972824;28;20054;-59
2022/08/23 06:54:02;;;;;;;12.05;5.20;;;32.80;58.40;;;;;;4969681;28;20038;-58
2022/08/23 06:56:29;;;;;;;8.75;5.03;;;32.90;57.30;;;;;;4955610;29;20475;-58
2022/08/23 06:58:54;;;;;;;13.32;5.40;;;32.80;56.40;;;;;;4966554;28;20133;-58
2022/08/23 07:01:29;;;;;;;10.50;5.75;;;32.90;55.90;;;;;;4947075;28;20046;-58
2022/08/23 07:03:55;;;;;;;12.32;5.47;;;33.10;54.90;;;;;;4970449;28;20050;-59
2022/08/23 07:06:26;;;;;;;11.30;5.40;;;33.30;59.70;;;;;;4974135;28;20381;-58
2022/08/23 07:08:52;;;;;;;12.25;5.50;;;33.20;53.50;;;;;;4966682;28;20031;-58
2022/08/23 07:11:19;;;;;;;11.15;5.75;;;32.20;60.40;;;;;;4965609;28;20070;-58
2022/08/23 07:13:45;;;;;;;10.98;5.30;;;32.40;54.70;;;;;;4962280;28;20126;-58
2022/08/23 07:16:11;;;;;;;13.10;5.00;;;32.40;54.70;;;;;;4957553;28;20416;-58
2022/08/23 07:18:39;;;;;;;9.52;5.15;;;32.80;54.30;;;;;;4970000;28;20172;-58
2022/08/23 07:21:05;;;;;;;9.63;4.78;;;33.10;52.90;;;;;;4961602;28;20036;-58
2022/08/23 07:23:33;;;;;;;9.90;4.78;;;33.50;52.40;;;;;;4948533;29;20109;-59
2022/08/23 07:26:07;;;;;;;13.02;4.78;;;34.00;51.20;;;;;;4955036;28;20493;-58
2022/08/23 07:28:32;;;;;;;7.10;4.28;;;34.30;50.20;;;;;;4937992;29;20047;-59
2022/08/23 07:31:09;;;;;;;9.02;4.32;;;34.20;50.00;;;;;;4954989;28;20047;-59
2022/08/23 07:33:36;;;;;;;11.10;4.13;;;33.30;56.90;;;;;;4954857;29;20043;-59
2022/08/23 07:36:03;;;;;;;9.73;4.28;;;34.20;49.40;;;;;;4955316;28;20360;-59
2022/08/23 07:38:29;;;;;;;13.77;4.32;;;34.40;49.20;;;;;;4954632;28;20043;-59
2022/08/23 07:40:56;;;;;;;11.63;4.45;;;34.50;48.70;;;;;;4953759;28;20399;-60
2022/08/23 07:43:22;;;;;;;9.40;4.38;;;34.60;48.70;;;;;;4952740;29;20122;-59
2022/08/23 07:45:48;;;;;;;10.32;4.57;;;34.80;48.70;;;;;;4953630;29;20812;-60
2022/08/23 07:48:14;;;;;;;7.40;3.95;;;34.60;48.40;;;;;;4951456;28;20361;-59
2022/08/23 07:50:40;;;;;;;9.85;4.00;;;34.40;49.10;;;;;;4954179;28;20126;-59
2022/08/23 07:53:07;;;;;;;11.50;4.45;;;34.50;49.40;;;;;;4953522;29;20146;-59
2022/08/23 07:55:33;;;;;;;9.15;4.30;;;34.40;50.00;;;;;;4954348;28;20039;-59
2022/08/23 07:58:00;;;;;;;10.05;4.53;;;34.30;50.30;;;;;;4953248;29;20047;-59
2022/08/23 08:00:26;;;;;;;7.57;4.22;;;34.10;50.90;;;;;;4953536;29;20035;-60
2022/08/23 08:02:52;;;;;;;8.07;4.40;;;33.80;51.00;;;;;;4953890;29;20369;-60
2022/08/23 08:05:18;;;;;;;10.75;4.63;;;32.90;58.40;;;;;;4915078;29;20114;-60
2022/08/23 08:07:43;;;;;;;11.63;4.20;;;33.10;52.40;;;;;;4953552;28;20035;-60
2022/08/23 08:10:10;;;;;;;7.68;4.22;;;32.50;53.30;;;;;;4953550;29;20038;-60
2022/08/23 08:12:36;;;;;;;9.32;3.95;;;32.20;54.00;;;;;;4953539;28;20040;-60
2022/08/23 08:15:03;;;;;;;6.35;3.60;;;32.10;54.90;;;;;;4953393;29;20039;-60
2022/08/23 08:17:29;;;;;;;7.43;4.20;;;31.90;55.00;;;;;;4953477;28;20058;-59
2022/08/23 08:19:54;;;;;;;7.68;4.15;;;31.90;55.30;;;;;;4953641;29;20043;-60
2022/08/23 08:22:20;;;;;;;7.45;3.97;;;31.80;55.60;;;;;;4953344;29;20078;-60
2022/08/23 08:24:46;;;;;;;8.75;4.05;;;31.70;55.60;;;;;;4970170;28;20058;-60
2022/08/23 08:27:12;;;;;;;9.75;3.75;;;31.50;55.60;;;;;;4967814;28;20079;-61
2022/08/23 08:29:39;;;;;;;8.80;3.83;;;31.40;55.30;;;;;;4967441;28;20089;-65
2022/08/23 08:32:06;;;;;;;11.00;3.90;;;31.40;55.80;;;;;;4968859;28;20101;-66
2022/08/23 08:34:31;;;;;;;9.57;3.90;;;30.30;60.40;;;;;;4969140;28;20122;-61
2022/08/23 08:36:57;;;;;;;10.25;3.53;;;31.10;56.70;;;;;;4969398;28;20117;-61
2022/08/23 08:39:29;;;;;;;6.40;3.33;;;31.10;56.90;;;;;;4969154;28;20406;-61
2022/08/23 08:42:17;;;;;;;11.45;4.15;;;31.30;56.40;;;;;;4968977;28;20450;-61
2022/08/23 08:44:50;;;;;;;12.43;4.80;;;31.20;56.20;;;;;;4969222;28;20042;-61
2022/08/23 08:47:57;;;;;;;7.72;4.05;;;29.80;61.20;;;;;;4968912;28;20487;-61
2022/08/23 08:50:26;;;;;;;8.85;4.03;;;30.80;56.60;;;;;;4948134;28;20606;-61
2022/08/23 08:53:04;;;;;;;10.52;4.68;;;30.70;57.30;;;;;;4951809;28;20062;-62
2022/08/23 08:55:44;;;;;;;10.70;3.90;;;30.30;63.20;;;;;;4968241;28;20046;-61
2022/08/23 08:58:28;;;;;;;11.63;4.65;;;30.30;57.50;;;;;;4968837;28;20518;-60
2022/08/23 09:00:54;;;;;;;11.63;4.50;;;30.00;58.20;;;;;;4969653;28;20458;-62
2022/08/23 09:03:21;;;;;;;6.78;4.10;;;29.90;59.20;;;;;;4972165;28;20031;-61
2022/08/23 09:05:59;;;;;;;8.88;4.10;;;30.20;59.50;;;;;;4972483;28;20043;-61
2022/08/23 09:08:49;;;;;;;10.63;4.20;;;30.40;59.10;;;;;;4972708;28;20395;-61
2022/08/23 09:11:29;;;;;;;6.30;4.53;;;30.60;58.40;;;;;;4971676;28;20053;-61
2022/08/23 09:14:06;;;;;;;9.93;4.45;;;30.90;57.60;;;;;;4971649;28;20117;-61
2022/08/23 09:16:42;;;;;;;12.43;4.57;;;31.00;57.70;;;;;;4960993;28;20375;-60
2022/08/23 09:19:10;;;;;;;7.45;3.92;;;31.10;57.80;;;;;;4973283;28;20118;-63
2022/08/23 09:22:15;;;;;;;9.15;4.00;;;31.00;63.10;;;;;;4972677;28;20410;-60
2022/08/23 09:24:41;;;;;;;11.20;3.95;;;31.20;57.30;;;;;;4894400;29;20065;-60
2022/08/23 09:27:08;;;;;;;10.95;3.80;;;31.40;57.80;;;;;;4894897;29;20053;-60
2022/08/23 09:29:40;;;;;;;12.10;3.90;;;32.30;62.10;;;;;;4894301;29;20048;-63
2022/08/23 09:32:28;;;;;;;8.07;3.70;;;31.40;56.90;;;;;;4905465;29;20045;-61
2022/08/23 09:35:25;;;;;;;6.30;3.42;;;31.40;56.20;;;;;;4894320;29;20474;-60
2022/08/23 09:38:21;;;;;;;10.57;4.10;;;31.30;56.60;;;;;;4893580;29;20052;-61
2022/08/23 09:40:49;;;;;;;9.30;3.63;;;31.30;56.10;;;;;;4890609;29;20053;-62
2022/08/23 09:43:22;;;;;;;6.95;3.60;;;31.30;56.80;;;;;;4894126;29;20576;-61
2022/08/23 09:45:48;;;;;;;10.68;4.00;;;31.20;56.90;;;;;;4894018;29;20041;-62
2022/08/23 09:48:31;;;;;;;7.65;3.50;;;31.10;57.00;;;;;;4893930;29;20060;-62
2022/08/23 09:51:17;;;;;;;9.57;3.72;;;31.10;57.30;;;;;;4893855;29;20049;-61
2022/08/23 09:53:50;;;;;;;8.75;3.35;;;31.20;56.90;;;;;;4893948;29;20136;-62
2022/08/23 09:56:24;;;;;;;6.97;3.20;;;31.30;56.40;;;;;;4893333;29;20089;-63
2022/08/23 09:58:52;;;;;;;9.80;3.28;;;31.40;55.80;;;;;;4893199;29;20128;-62
2022/08/23 10:01:35;;;;;;;8.13;3.50;;;31.10;59.60;;;;;;4968789;28;20507;-62
2022/08/23 10:04:15;;;;;;;9.35;3.28;;;31.30;53.60;;;;;;4959559;28;20039;-61
2022/08/23 10:06:45;;;;;;;10.07;3.35;;;31.20;53.80;;;;;;4953690;28;20094;-62
2022/08/23 10:09:25;;;;;;;9.98;3.10;;;31.20;55.00;;;;;;4953928;28;20058;-62
2022/08/23 10:11:51;;;;;;;9.95;3.20;;;31.10;54.80;;;;;;4970940;28;20039;-61
2022/08/23 10:14:18;;;;;;;10.32;3.35;;;31.10;54.90;;;;;;4971502;28;20038;-62
2022/08/23 10:17:16;;;;;;;6.38;3.10;;;31.00;55.00;;;;;;4971324;28;20042;-61
2022/08/23 10:19:48;;;;;;;12.65;3.28;;;31.10;52.20;;;;;;4968943;28;20047;-61
2022/08/23 10:22:21;;;;;;;10.07;3.50;;;31.10;53.90;;;;;;4971066;28;20117;-61
2022/08/23 10:24:59;;;;;;;7.05;3.45;;;31.10;54.30;;;;;;4972597;28;20526;-59
2022/08/23 10:31:16;;;;;;;9.90;2.85;;;31.00;53.10;;;;;;4972404;28;20454;-61
2022/08/23 10:34:11;;;;;;;8.10;3.30;;;31.00;54.60;;;;;;4972734;28;20034;-61
2022/08/23 10:36:46;;;;;;;;;;;31.00;54.20;;;;;;4972824;28;20126;-61
2022/08/23 10:39:27;;;;;;;6.63;3.35;;;31.00;55.30;;;;;;4966042;28;20004;-61
2022/08/23 10:42:30;;;;;;;8.02;3.05;;;31.10;54.70;;;;;;4971479;28;20042;-59
2022/08/23 10:44:57;;;;;;;6.82;2.92;;;31.20;54.70;;;;;;4970992;28;20122;-59
2022/08/23 10:47:57;;;;;;;8.73;3.00;;;31.20;54.10;;;;;;4971210;28;20443;-60
2022/08/23 10:50:26;;;;;;;5.30;2.95;;;31.20;54.10;;;;;;4970497;28;20110;-61
2022/08/23 10:53:17;;;;;;;6.28;3.00;;;31.20;54.10;;;;;;4970507;28;20046;-61
2022/08/23 10:56:03;;;;;;;6.82;3.00;;;31.20;54.20;;;;;;4968391;28;20047;-59
2022/08/23 10:58:46;;;;;;;5.78;2.95;;;31.20;54.40;;;;;;4972936;28;20051;-56
2022/08/23 11:01:17;;;;;;;12.18;3.38;;;31.10;53.70;;;;;;4973049;28;20129;-56
2022/08/23 11:03:54;;;;;;;8.68;3.20;;;31.10;54.20;;;;;;4971173;28;20058;-56
2022/08/23 11:06:35;;;;;;;5.13;3.05;;;31.10;53.30;;;;;;4972948;28;20039;-56
2022/08/23 11:09:08;;;;;;;8.27;2.92;;;31.20;53.40;;;;;;4955646;28;20415;-56
2022/08/23 11:11:49;;;;;;;5.38;2.75;;;31.20;52.70;;;;;;4970904;28;20043;-58
2022/08/23 11:14:37;;;;;;;8.30;3.05;;;31.30;53.20;;;;;;4972386;28;20046;-58
2022/08/23 11:17:10;;;;;;;5.72;3.00;;;31.20;51.50;;;;;;4972801;28;20078;-58
2022/08/23 11:19:56;;;;;;;7.72;3.30;;;31.10;51.70;;;;;;4972538;28;20775;-58
2022/08/23 11:22:26;;;;;;;9.63;3.10;;;31.00;52.40;;;;;;4972793;28;20082;-58
2022/08/23 11:24:55;;;;;;;8.68;2.85;;;31.00;52.50;;;;;;4952210;28;20058;-58
2022/08/23 11:27:39;;;;;;;8.68;3.05;;;31.00;52.60;;;;;;4954141;29;20035;-58
2022/08/23 11:30:35;;;;;;;4.75;2.72;;;31.00;52.20;;;;;;4953444;29;20047;-58
2022/08/23 11:33:19;;;;;;;6.75;3.10;;;31.20;52.50;;;;;;4952527;29;20667;-58
2022/08/23 11:35:50;;;;;;;8.13;3.00;;;31.30;52.20;;;;;;4951052;29;20043;-58
2022/08/23 11:38:36;;;;;;;4.35;2.80;;;31.40;52.40;;;;;;4951123;29;20067;-58
2022/08/23 11:41:54;;;;;;;14.35;3.13;;;31.40;52.00;;;;;;4951356;29;20039;-61
2022/08/23 11:44:35;;;;;;;7.75;2.80;;;31.30;52.00;;;;;;4929892;29;20198;-61
2022/08/23 11:47:05;;;;;;;10.27;3.13;;;31.30;51.80;;;;;;4951685;29;20039;-61
2022/08/23 11:49:39;;;;;;;6.28;2.92;;;31.20;52.20;;;;;;4953738;29;20554;-61
2022/08/23 11:52:11;;;;;;;;;;;31.30;52.80;;;;;;4953753;29;20035;-61
2022/08/23 11:55:13;;;;;;;7.18;3.00;;;31.40;52.70;;;;;;4953730;29;20384;-61
2022/08/23 11:57:56;;;;;;;8.88;3.00;;;31.40;52.50;;;;;;4920799;29;20047;-62
2022/08/23 12:00:43;;;;;;;7.32;2.92;;;31.40;51.70;;;;;;4953768;29;20054;-62
2022/08/23 12:03:33;;;;;;;5.03;2.80;;;31.60;52.00;;;;;;4936074;29;20051;-62
2022/08/23 12:06:04;;;;;;;5.43;2.85;;;31.70;50.90;;;;;;4953864;29;20035;-62
2022/08/23 12:08:44;;;;;;;9.80;3.10;;;31.70;50.90;;;;;;4953500;29;20070;-62
2022/08/23 12:11:11;;;;;;;7.47;3.10;;;31.70;51.00;;;;;;4953801;29;20050;-61
2022/08/23 12:14:23;;;;;;;8.48;2.92;;;31.70;51.00;;;;;;4953515;29;20087;-61
2022/08/23 12:16:49;;;;;;;7.05;2.97;;;31.80;51.40;;;;;;4915486;29;20070;-61
2022/08/23 12:19:26;;;;;;;9.10;3.00;;;31.90;50.80;;;;;;4953220;29;20047;-62
2022/08/23 12:21:55;;;;;;;6.25;2.97;;;32.10;50.40;;;;;;4952916;29;20404;-62
2022/08/23 12:24:39;;;;;;;6.50;2.90;;;32.20;49.90;;;;;;4942217;29;20353;-61
2022/08/23 12:27:12;;;;;;;5.32;3.00;;;32.00;50.10;;;;;;4953218;28;20055;-61
2022/08/23 12:29:53;;;;;;;7.28;3.20;;;32.10;50.50;;;;;;4951639;29;20066;-61
2022/08/23 12:32:54;;;;;;;8.57;3.55;;;32.30;50.40;;;;;;4953623;29;20035;-61
2022/08/23 12:35:30;;;;;;;7.05;3.05;;;32.30;51.80;;;;;;4953128;28;20079;-61
2022/08/23 12:38:06;;;;;;;6.22;2.70;;;32.50;49.30;;;;;;4971385;28;20098;-61
2022/08/23 12:40:39;;;;;;;10.68;3.08;;;32.50;49.20;;;;;;4971233;28;20039;-60
2022/08/23 12:43:10;;;;;;;6.57;2.95;;;32.50;49.00;;;;;;4957077;28;20126;-61
2022/08/23 12:45:47;;;;;;;4.85;2.70;;;32.70;48.60;;;;;;4955203;29;20098;-61
2022/08/23 12:48:15;;;;;;;4.78;2.83;;;32.70;48.50;;;;;;4957110;28;20035;-61
2022/08/23 12:50:44;;;;;;;5.68;2.83;;;32.80;48.00;;;;;;4954929;29;20070;-61
2022/08/23 12:53:16;;;;;;;5.00;2.63;;;32.90;47.50;;;;;;4956898;28;20047;-61
2022/08/23 12:55:50;;;;;;;7.38;3.00;;;32.90;47.70;;;;;;4975645;28;20044;-61
2022/08/23 12:58:26;;;;;;;5.65;2.80;;;32.90;47.30;;;;;;4953905;29;20031;-61
2022/08/23 13:01:01;;;;;;;6.47;2.90;;;33.00;46.80;;;;;;4956799;28;20031;-60
2022/08/23 13:03:37;;;;;;;6.47;2.70;;;33.00;47.90;;;;;;4956617;28;20039;-62
2022/08/23 13:06:20;;;;;;;5.20;2.90;;;33.20;46.90;;;;;;4955846;29;20035;-61
2022/08/23 13:09:03;;;;;;;6.00;2.95;;;33.20;46.50;;;;;;4956657;28;20125;-62
2022/08/23 13:11:31;;;;;;;7.82;3.05;;;33.40;46.70;;;;;;4955867;29;20462;-61
2022/08/23 13:13:57;;;;;;;7.40;2.92;;;33.50;46.90;;;;;;4963728;28;20392;-62
2022/08/23 13:16:40;;;;;;;4.22;2.63;;;33.50;46.40;;;;;;4956718;28;20118;-62
2022/08/23 13:19:21;;;;;;;5.93;3.08;;;33.30;46.30;;;;;;4954368;29;20068;-62